Time;durP1;ratioP1;P1;durP2;ratioP2;P2;SDS_P1;SDS_P2;PMS_P1;PMS_P2;Temp;Humidity;BMP_temperature;BMP_pressure;BME280_temperature;BME280_humidity;BME280_pressure;Samples;Min_cycle;Max_cycle;Signal;HPM_P1;HPM_P2
2022/11/07 00:02:08;;;;;;;14.88;10.77;;;10.00;99.90;;;;;;5118347;27;20162;-58
2022/11/07 00:04:34;;;;;;;13.68;10.25;;;10.00;99.90;;;;;;5137091;27;20116;-51
2022/11/07 00:07:00;;;;;;;13.35;10.95;;;10.00;99.90;;;;;;5135723;27;20050;-54
2022/11/07 00:09:29;;;;;;;15.70;10.98;;;10.00;99.90;;;;;;5136284;27;20050;-53
2022/11/07 00:11:55;;;;;;;14.73;10.98;;;10.10;99.90;;;;;;5136701;27;20046;-52
2022/11/07 00:14:21;;;;;;;18.45;12.15;;;10.10;99.90;;;;;;5136590;27;20046;-49
2022/11/07 00:16:47;;;;;;;22.38;12.15;;;10.00;99.90;;;;;;5135613;27;20271;-59
2022/11/07 00:19:15;;;;;;;16.63;11.23;;;10.10;99.90;;;;;;5133865;27;20084;-46
2022/11/07 00:21:42;;;;;;;17.80;11.82;;;10.10;99.90;;;;;;5118578;27;20057;-48
2022/11/07 00:24:08;;;;;;;19.48;11.68;;;10.10;99.90;;;;;;5136889;27;20042;-56
2022/11/07 00:26:35;;;;;;;19.35;10.98;;;10.20;99.90;;;;;;5117059;27;20571;-45
2022/11/07 00:29:01;;;;;;;18.60;11.85;;;10.10;99.90;;;;;;5118392;27;20459;-55
2022/11/07 00:31:27;;;;;;;17.25;9.90;;;10.20;99.90;;;;;;5136304;27;20054;-51
2022/11/07 00:33:53;;;;;;;15.90;10.10;;;10.30;99.90;;;;;;5118624;27;20038;-47
2022/11/07 00:36:22;;;;;;;16.80;9.90;;;10.30;99.90;;;;;;5135855;27;20047;-51
2022/11/07 00:38:47;;;;;;;17.65;10.35;;;10.30;99.90;;;;;;5117607;27;20042;-48
2022/11/07 00:41:13;;;;;;;17.38;9.13;;;10.30;99.90;;;;;;5122473;27;20490;-46
2022/11/07 00:43:39;;;;;;;15.82;9.80;;;10.30;99.90;;;;;;5136498;27;20586;-56
2022/11/07 00:46:07;;;;;;;14.20;8.80;;;10.30;99.90;;;;;;5115758;27;20540;-58
2022/11/07 00:48:33;;;;;;;13.65;8.80;;;10.30;99.90;;;;;;5117528;27;20050;-48
2022/11/07 00:51:14;;;;;;;13.52;8.38;;;10.40;99.90;;;;;;5136129;27;20046;-47
2022/11/07 00:53:41;;;;;;;13.65;7.65;;;10.40;99.90;;;;;;5137006;27;20510;-51
2022/11/07 00:56:10;;;;;;;13.70;8.45;;;10.40;99.90;;;;;;5135927;27;20126;-62
2022/11/07 00:58:35;;;;;;;13.88;8.15;;;10.40;99.90;;;;;;5135693;27;21028;-51
2022/11/07 01:01:10;;;;;;;22.02;8.77;;;10.40;99.90;;;;;;5116739;27;20399;-49
2022/11/07 01:06:21;;;;;;;16.73;8.00;;;10.40;99.90;;;;;;5135204;27;20529;-45
2022/11/07 01:08:47;;;;;;;18.42;8.43;;;10.40;99.90;;;;;;5135702;27;20034;-53
2022/11/07 01:11:13;;;;;;;14.20;9.10;;;10.40;99.90;;;;;;5117322;27;20511;-56
2022/11/07 01:13:39;;;;;;;21.95;9.90;;;10.50;99.90;;;;;;5135882;27;20476;-59
2022/11/07 01:16:07;;;;;;;16.33;8.98;;;10.40;99.90;;;;;;5135226;27;20067;-51
2022/11/07 01:18:32;;;;;;;15.82;8.20;;;10.50;99.90;;;;;;5134811;27;20053;-54
2022/11/07 01:20:58;;;;;;;23.90;8.48;;;10.50;99.90;;;;;;5136349;27;20439;-58
2022/11/07 01:23:24;;;;;;;15.05;7.95;;;10.40;99.90;;;;;;5116910;27;20331;-45
2022/11/07 01:25:49;;;;;;;12.73;7.22;;;10.40;99.90;;;;;;5135331;27;20400;-60
2022/11/07 01:28:15;;;;;;;14.40;7.80;;;10.40;99.90;;;;;;5135294;27;20099;-59
2022/11/07 01:30:42;;;;;;;17.38;7.90;;;10.40;99.90;;;;;;5135747;27;20046;-50
2022/11/07 01:33:09;;;;;;;14.35;7.57;;;10.50;99.90;;;;;;5135678;27;20640;-60
2022/11/07 01:35:35;;;;;;;15.82;8.23;;;10.50;99.90;;;;;;5135357;27;20167;-55
2022/11/07 01:38:01;;;;;;;14.00;7.22;;;10.50;99.90;;;;;;5116525;27;20347;-51
2022/11/07 01:40:28;;;;;;;14.75;8.07;;;10.50;99.90;;;;;;5127015;27;20047;-48
2022/11/07 01:42:53;;;;;;;15.35;6.93;;;10.50;99.90;;;;;;5131581;27;20042;-47
2022/11/07 01:45:30;;;;;;;18.15;7.57;;;10.50;99.90;;;;;;5116638;27;20539;-58
2022/11/07 01:48:00;;;;;;;16.75;7.97;;;10.50;99.90;;;;;;5134675;27;20479;-46
2022/11/07 01:50:26;;;;;;;15.32;8.93;;;10.50;99.90;;;;;;5116349;27;20129;-48
2022/11/07 01:52:54;;;;;;;20.45;8.35;;;10.60;99.90;;;;;;5135344;27;20043;-52
2022/11/07 01:55:23;;;;;;;15.10;7.53;;;10.50;99.90;;;;;;5134885;27;20067;-59
2022/11/07 01:57:59;;;;;;;16.35;6.82;;;10.60;99.90;;;;;;5134598;27;20055;-56
2022/11/07 02:00:26;;;;;;;19.52;8.23;;;10.60;99.90;;;;;;5121528;27;20051;-60
2022/11/07 02:02:57;;;;;;;18.20;7.85;;;10.60;99.90;;;;;;5139389;27;20050;-46
2022/11/07 02:05:31;;;;;;;20.55;8.57;;;10.50;99.90;;;;;;5120612;27;20464;-50
2022/11/07 02:07:58;;;;;;;17.40;8.73;;;10.50;99.90;;;;;;5139574;27;20042;-53
2022/11/07 02:10:25;;;;;;;16.73;7.95;;;10.50;99.90;;;;;;5140420;27;20114;-53
2022/11/07 02:12:52;;;;;;;18.15;7.40;;;10.50;99.90;;;;;;5139829;27;20057;-43
2022/11/07 02:15:18;;;;;;;16.05;7.10;;;10.50;99.90;;;;;;5138726;27;20050;-45
2022/11/07 02:17:43;;;;;;;21.67;8.00;;;10.60;99.90;;;;;;5119426;27;20051;-51
2022/11/07 02:20:10;;;;;;;14.90;6.72;;;10.50;99.90;;;;;;5139371;27;20039;-55
2022/11/07 02:23:12;;;;;;;17.13;7.22;;;10.50;99.90;;;;;;5139911;27;20038;-56
2022/11/07 02:25:38;;;;;;;17.13;7.10;;;10.40;99.90;;;;;;5034284;28;20052;-44
2022/11/07 02:28:07;;;;;;;11.60;5.22;;;10.40;99.90;;;;;;5033695;28;20075;-56
2022/11/07 02:30:33;;;;;;;12.82;5.18;;;10.40;99.90;;;;;;5034054;28;20051;-43
2022/11/07 02:33:00;;;;;;;16.90;5.97;;;10.40;99.90;;;;;;5033931;28;20099;-49
2022/11/07 02:35:39;;;;;;;13.10;5.53;;;10.40;99.90;;;;;;5017483;28;20049;-55
2022/11/07 02:38:10;;;;;;;16.30;6.53;;;10.40;99.90;;;;;;5033553;28;20095;-53
2022/11/07 02:40:36;;;;;;;13.68;6.10;;;10.40;99.90;;;;;;5033626;28;20088;-55
2022/11/07 02:43:03;;;;;;;12.60;6.10;;;10.40;99.90;;;;;;5034155;28;20555;-52
2022/11/07 02:45:33;;;;;;;14.23;6.45;;;10.30;99.90;;;;;;5033322;28;20048;-56
2022/11/07 02:47:59;;;;;;;13.10;5.80;;;10.40;99.90;;;;;;5032846;28;20103;-59
2022/11/07 02:50:25;;;;;;;16.05;5.95;;;10.40;99.90;;;;;;5034299;28;20045;-53
2022/11/07 02:52:51;;;;;;;11.35;5.70;;;10.30;99.90;;;;;;5033991;28;20084;-52
2022/11/07 02:55:16;;;;;;;17.65;6.40;;;10.30;99.90;;;;;;5033178;28;20636;-55
2022/11/07 02:57:42;;;;;;;14.90;6.15;;;10.30;99.90;;;;;;5031214;28;20544;-53
2022/11/07 03:00:10;;;;;;;15.27;4.90;;;10.20;99.90;;;;;;5039431;27;20119;-52
2022/11/07 03:02:36;;;;;;;13.45;4.85;;;10.20;99.90;;;;;;5115502;27;20060;-54
2022/11/07 03:05:02;;;;;;;15.20;5.18;;;10.20;99.90;;;;;;5117392;27;20236;-54
2022/11/07 03:07:28;;;;;;;13.02;5.03;;;10.20;99.90;;;;;;5136310;27;20157;-55
2022/11/07 03:09:53;;;;;;;18.98;5.13;;;10.10;99.90;;;;;;5119595;27;20658;-42
2022/11/07 03:12:19;;;;;;;9.35;3.95;;;10.20;99.90;;;;;;5119706;27;20059;-60
2022/11/07 03:14:45;;;;;;;11.05;4.13;;;10.20;99.90;;;;;;5138654;27;20035;-45
2022/11/07 03:17:10;;;;;;;14.70;4.05;;;10.10;99.90;;;;;;5137675;27;20046;-55
2022/11/07 03:19:36;;;;;;;21.45;5.05;;;10.10;99.90;;;;;;5137408;27;20035;-51
2022/11/07 03:22:02;;;;;;;16.27;4.05;;;10.00;99.90;;;;;;5101455;27;20481;-61
2022/11/07 03:24:28;;;;;;;13.75;3.90;;;10.00;99.90;;;;;;5137334;27;20030;-52
2022/11/07 03:26:53;;;;;;;13.93;4.28;;;10.10;99.90;;;;;;5137387;27;20046;-43
2022/11/07 03:29:19;;;;;;;15.85;4.18;;;10.10;99.90;;;;;;5136805;27;20519;-58
2022/11/07 03:31:45;;;;;;;17.13;5.03;;;10.10;99.90;;;;;;5137879;27;20045;-54
2022/11/07 03:34:10;;;;;;;16.88;5.22;;;10.10;99.90;;;;;;5119441;27;20053;-54
2022/11/07 03:36:36;;;;;;;12.63;4.63;;;10.10;99.90;;;;;;5118393;27;20055;-53
2022/11/07 03:39:02;;;;;;;13.20;5.25;;;10.20;99.90;;;;;;5136696;27;20142;-60
2022/11/07 03:41:28;;;;;;;15.60;5.22;;;10.10;99.90;;;;;;5123865;27;20400;-54
2022/11/07 03:43:53;;;;;;;16.25;4.78;;;10.20;99.90;;;;;;5120097;27;20039;-43
2022/11/07 03:46:19;;;;;;;14.85;4.68;;;10.10;99.90;;;;;;5136671;27;20437;-59
2022/11/07 03:48:45;;;;;;;16.85;5.00;;;10.20;99.90;;;;;;5137434;27;20043;-50
2022/11/07 03:51:11;;;;;;;17.48;5.47;;;10.20;99.90;;;;;;5118587;27;20051;-58
2022/11/07 03:53:36;;;;;;;17.23;4.75;;;10.10;99.90;;;;;;5137994;27;20153;-49
2022/11/07 03:56:10;;;;;;;16.48;6.05;;;10.00;99.90;;;;;;5136645;27;20526;-52
2022/11/07 03:58:35;;;;;;;14.82;5.47;;;10.00;99.90;;;;;;5136915;27;20051;-53
2022/11/07 04:01:02;;;;;;;20.02;5.95;;;10.10;99.90;;;;;;5118981;27;20213;-43
2022/11/07 04:03:28;;;;;;;22.45;5.65;;;10.20;99.90;;;;;;5137058;27;20052;-45
2022/11/07 04:05:53;;;;;;;19.60;5.65;;;10.20;99.90;;;;;;5136091;27;20039;-54
2022/11/07 04:08:19;;;;;;;15.05;5.03;;;10.30;99.90;;;;;;5118092;27;20371;-57
2022/11/07 04:10:45;;;;;;;16.35;5.03;;;10.20;99.90;;;;;;5119029;27;20103;-59
2022/11/07 04:18:39;;;;;;;17.30;4.82;;;10.20;99.90;;;;;;5135382;27;20085;-56
2022/11/07 04:21:05;;;;;;;12.52;5.00;;;10.30;99.90;;;;;;5135668;27;20114;-59
2022/11/07 04:23:31;;;;;;;19.02;5.65;;;10.20;99.90;;;;;;5136642;27;20053;-45
2022/11/07 04:28:40;;;;;;;15.68;5.85;;;10.30;99.90;;;;;;5136268;27;20587;-49
2022/11/07 04:31:06;;;;;;;12.68;5.35;;;10.40;99.90;;;;;;5117826;27;20056;-42
2022/11/07 04:33:32;;;;;;;21.27;7.05;;;10.40;99.90;;;;;;5136930;27;20531;-53
2022/11/07 04:35:57;;;;;;;19.88;6.43;;;10.40;99.90;;;;;;5136262;27;20464;-57
2022/11/07 04:38:23;;;;;;;15.05;6.25;;;10.40;99.90;;;;;;5135577;27;20121;-44
2022/11/07 04:40:56;;;;;;;19.83;7.05;;;10.40;99.90;;;;;;5124688;27;20071;-61
2022/11/07 04:43:24;;;;;;;17.88;6.40;;;10.50;99.90;;;;;;5117320;27;20046;-56
2022/11/07 04:45:49;;;;;;;23.50;7.50;;;10.50;99.90;;;;;;5135739;27;20088;-58
2022/11/07 04:48:16;;;;;;;15.00;6.63;;;10.40;99.90;;;;;;5135897;27;20377;-60
2022/11/07 04:50:42;;;;;;;15.15;5.63;;;10.40;99.90;;;;;;5136159;27;20106;-65
2022/11/07 04:53:16;;;;;;;23.13;7.82;;;10.40;99.90;;;;;;5136774;27;20084;-52
2022/11/07 04:55:42;;;;;;;19.73;6.20;;;10.40;99.90;;;;;;5135422;27;20058;-58
2022/11/07 04:58:08;;;;;;;22.83;6.95;;;10.30;99.90;;;;;;5135927;27;20115;-57
2022/11/07 05:00:34;;;;;;;15.88;6.40;;;10.30;99.90;;;;;;5134561;27;20339;-42
2022/11/07 05:03:00;;;;;;;18.58;6.13;;;10.30;99.90;;;;;;5105825;27;20123;-59
2022/11/07 05:05:26;;;;;;;13.88;5.68;;;10.30;99.90;;;;;;5134657;27;20050;-50
2022/11/07 05:07:52;;;;;;;18.67;6.78;;;10.30;99.90;;;;;;5135137;27;20046;-54
2022/11/07 05:10:22;;;;;;;13.38;5.95;;;10.30;99.90;;;;;;5136140;27;20038;-46
2022/11/07 05:12:48;;;;;;;18.48;6.68;;;10.30;99.90;;;;;;5136006;27;20507;-46
2022/11/07 05:15:14;;;;;;;18.85;6.60;;;10.30;99.90;;;;;;5116017;27;20396;-53
2022/11/07 05:17:40;;;;;;;16.15;5.25;;;10.30;99.90;;;;;;5134970;27;20366;-46
2022/11/07 05:20:06;;;;;;;18.00;6.63;;;10.30;99.90;;;;;;5135517;27;20099;-51
2022/11/07 05:25:16;;;;;;;19.90;7.55;;;10.30;99.90;;;;;;5134588;27;20173;-52
2022/11/07 05:27:42;;;;;;;22.17;6.22;;;10.30;99.90;;;;;;5116696;27;20042;-52
2022/11/07 05:30:09;;;;;;;19.77;8.02;;;10.10;99.90;;;;;;5135304;27;20647;-43
2022/11/07 05:32:37;;;;;;;15.85;6.00;;;10.10;99.90;;;;;;5135141;27;20058;-61
2022/11/07 05:35:04;;;;;;;15.95;6.25;;;10.10;99.90;;;;;;5121860;27;20050;-46
2022/11/07 05:37:30;;;;;;;17.45;7.13;;;10.20;99.90;;;;;;5126713;27;20043;-52
2022/11/07 05:39:55;;;;;;;20.52;5.85;;;10.10;99.90;;;;;;5130644;27;20400;-57
2022/11/07 05:42:21;;;;;;;18.20;6.35;;;10.20;99.90;;;;;;5126069;27;20050;-53
2022/11/07 05:44:47;;;;;;;15.20;5.75;;;10.20;99.90;;;;;;5135285;27;20436;-59
2022/11/07 05:47:12;;;;;;;19.08;5.43;;;10.10;99.90;;;;;;5134192;27;20448;-53
2022/11/07 05:49:38;;;;;;;15.52;5.50;;;10.20;99.90;;;;;;5135359;27;20038;-55
2022/11/07 05:52:04;;;;;;;14.20;5.40;;;10.10;99.90;;;;;;5135375;27;20157;-52
2022/11/07 05:54:31;;;;;;;17.73;5.85;;;10.10;99.90;;;;;;5134122;27;20035;-52
2022/11/07 05:56:57;;;;;;;16.90;5.70;;;10.10;99.90;;;;;;5135006;27;20071;-55
2022/11/07 05:59:23;;;;;;;18.63;5.40;;;10.10;99.90;;;;;;5135501;27;20047;-43
2022/11/07 06:01:50;;;;;;;18.17;5.70;;;10.00;99.90;;;;;;5117292;27;20390;-57
2022/11/07 06:04:15;;;;;;;16.15;5.53;;;9.90;99.90;;;;;;5135171;27;20039;-47
2022/11/07 06:06:41;;;;;;;18.00;6.10;;;10.00;99.90;;;;;;5134377;27;20507;-57
2022/11/07 06:09:07;;;;;;;16.35;5.63;;;10.00;99.90;;;;;;5115174;27;20125;-57
2022/11/07 06:11:33;;;;;;;15.27;5.72;;;10.00;99.90;;;;;;5115851;27;20054;-56
2022/11/07 06:13:58;;;;;;;14.30;4.97;;;10.10;99.90;;;;;;5116171;27;20386;-58
2022/11/07 06:16:24;;;;;;;14.90;5.43;;;10.00;99.90;;;;;;5134611;27;20097;-57
2022/11/07 06:18:50;;;;;;;14.50;5.72;;;10.10;99.90;;;;;;5116091;27;20184;-52
2022/11/07 06:21:15;;;;;;;11.80;4.82;;;10.00;99.90;;;;;;5134941;27;20337;-58
2022/11/07 06:23:42;;;;;;;11.80;4.60;;;10.00;99.90;;;;;;5116275;27;20078;-53
2022/11/07 06:26:07;;;;;;;15.35;6.82;;;10.10;99.90;;;;;;5134394;27;20429;-47
2022/11/07 06:28:34;;;;;;;18.17;7.38;;;10.20;99.90;;;;;;5134320;27;20050;-54
2022/11/07 06:31:01;;;;;;;15.45;7.57;;;10.20;99.90;;;;;;5134740;27;20079;-48
2022/11/07 06:33:28;;;;;;;19.10;7.25;;;10.30;99.90;;;;;;5135389;27;20398;-64
2022/11/07 06:35:54;;;;;;;20.33;8.77;;;10.30;99.90;;;;;;5134521;27;20137;-52
2022/11/07 06:38:20;;;;;;;25.10;9.80;;;10.30;99.90;;;;;;5133945;27;20053;-52
2022/11/07 06:40:45;;;;;;;20.65;9.43;;;10.30;99.90;;;;;;5123570;27;20089;-59
2022/11/07 06:43:13;;;;;;;22.85;10.35;;;10.40;99.90;;;;;;5132932;27;20038;-46
2022/11/07 06:45:39;;;;;;;25.02;10.25;;;10.30;99.90;;;;;;5119152;27;21106;-47
2022/11/07 06:48:05;;;;;;;23.08;10.00;;;10.40;99.90;;;;;;5119626;27;20050;-45
2022/11/07 06:50:31;;;;;;;30.20;11.32;;;10.40;99.90;;;;;;5138392;27;20038;-55
2022/11/07 06:53:01;;;;;;;27.75;12.35;;;10.40;99.90;;;;;;5138837;27;20852;-53
2022/11/07 06:55:27;;;;;;;21.80;12.45;;;10.30;99.90;;;;;;5118785;27;20097;-54
2022/11/07 06:57:57;;;;;;;23.73;10.77;;;10.40;99.90;;;;;;5137407;27;20125;-49
2022/11/07 07:00:23;;;;;;;30.67;12.48;;;10.40;99.90;;;;;;5138502;27;20365;-58
2022/11/07 07:02:48;;;;;;;31.95;12.75;;;10.20;99.90;;;;;;5138827;27;20049;-43
2022/11/07 07:05:14;;;;;;;23.27;12.10;;;10.20;99.90;;;;;;5138413;27;20045;-43
2022/11/07 07:07:39;;;;;;;24.48;12.05;;;10.30;99.90;;;;;;5138459;27;20505;-59
2022/11/07 07:10:06;;;;;;;26.10;12.00;;;10.30;99.90;;;;;;5120165;27;20477;-61
2022/11/07 07:12:33;;;;;;;26.05;12.43;;;10.20;99.90;;;;;;5119876;27;20050;-59
2022/11/07 07:14:59;;;;;;;23.50;11.55;;;10.20;99.90;;;;;;5137436;27;20038;-46
2022/11/07 07:17:24;;;;;;;25.52;11.60;;;10.30;99.90;;;;;;5137703;27;20135;-57
2022/11/07 07:19:50;;;;;;;30.90;12.27;;;10.20;99.90;;;;;;5119141;27;20050;-60
2022/11/07 07:22:16;;;;;;;25.13;12.20;;;10.20;99.90;;;;;;5138355;27;20039;-46
2022/11/07 07:24:41;;;;;;;25.50;12.18;;;10.30;99.90;;;;;;5137635;27;20343;-42
2022/11/07 07:27:07;;;;;;;33.25;13.20;;;10.20;99.90;;;;;;5137789;27;20049;-59
2022/11/07 07:29:33;;;;;;;27.45;12.80;;;10.30;99.90;;;;;;5138399;27;20562;-47
2022/11/07 07:31:58;;;;;;;30.35;13.77;;;10.30;99.90;;;;;;5136947;27;20379;-61
2022/11/07 07:34:24;;;;;;;30.35;13.32;;;10.30;99.90;;;;;;5136143;27;20115;-45
2022/11/07 07:36:52;;;;;;;23.83;12.40;;;10.30;99.90;;;;;;5136622;27;20440;-54
2022/11/07 07:39:18;;;;;;;31.67;11.95;;;10.20;99.90;;;;;;5138249;27;20045;-48
2022/11/07 07:41:43;;;;;;;26.52;12.65;;;10.20;99.90;;;;;;5124423;27;20034;-43
2022/11/07 07:44:09;;;;;;;33.92;13.13;;;10.20;99.90;;;;;;5120482;27;20422;-58
2022/11/07 07:46:35;;;;;;;27.73;12.63;;;10.40;99.90;;;;;;5137852;27;20045;-42
2022/11/07 07:49:00;;;;;;;26.77;12.77;;;10.30;99.90;;;;;;5116417;27;20055;-55
2022/11/07 07:51:26;;;;;;;24.58;12.05;;;10.40;99.90;;;;;;5136428;27;20038;-50
2022/11/07 07:53:52;;;;;;;22.13;11.63;;;10.40;99.90;;;;;;5136729;27;20061;-58
2022/11/07 07:56:18;;;;;;;25.23;12.10;;;10.30;99.90;;;;;;5117271;27;20038;-52
2022/11/07 07:58:44;;;;;;;22.35;10.98;;;10.50;99.90;;;;;;5136692;27;20039;-43
2022/11/07 08:01:10;;;;;;;27.30;11.60;;;10.50;99.90;;;;;;5136691;27;20049;-57
2022/11/07 08:03:36;;;;;;;26.05;11.13;;;10.50;99.90;;;;;;5136125;27;20039;-54
2022/11/07 08:06:04;;;;;;;27.52;11.32;;;10.60;99.90;;;;;;5135705;27;20055;-60
2022/11/07 08:08:30;;;;;;;23.85;11.23;;;10.50;99.90;;;;;;5117153;27;20483;-45
2022/11/07 08:11:03;;;;;;;21.35;10.15;;;10.60;99.90;;;;;;5122505;27;20081;-55
2022/11/07 08:13:29;;;;;;;25.00;11.55;;;10.70;99.90;;;;;;5120569;27;20031;-51
2022/11/07 08:15:55;;;;;;;32.30;10.65;;;10.60;99.90;;;;;;5116779;27;20111;-46
2022/11/07 08:18:22;;;;;;;24.90;9.73;;;10.60;99.90;;;;;;5119123;27;20149;-44
2022/11/07 08:20:49;;;;;;;23.98;9.50;;;10.70;99.90;;;;;;5124827;27;20044;-58
2022/11/07 08:23:16;;;;;;;19.90;10.27;;;10.70;99.90;;;;;;5121487;27;20265;-55
2022/11/07 08:25:42;;;;;;;24.83;9.38;;;10.80;99.90;;;;;;5120103;27;20156;-64
2022/11/07 08:28:07;;;;;;;19.45;9.55;;;10.90;99.90;;;;;;5101190;27;20170;-56
2022/11/07 08:30:34;;;;;;;20.70;9.50;;;10.80;99.90;;;;;;5116108;27;20544;-55
2022/11/07 08:33:01;;;;;;;21.42;8.45;;;11.00;99.90;;;;;;5135471;27;20058;-43
2022/11/07 08:35:28;;;;;;;25.30;9.75;;;11.00;99.90;;;;;;5135824;27;20399;-55
2022/11/07 08:37:54;;;;;;;22.80;8.70;;;11.00;99.90;;;;;;5136765;27;20055;-43
2022/11/07 08:40:21;;;;;;;22.65;8.90;;;11.00;99.90;;;;;;5129028;27;20050;-47
2022/11/07 08:42:46;;;;;;;24.60;9.10;;;11.00;99.90;;;;;;5112210;27;20097;-51
2022/11/07 08:45:12;;;;;;;23.05;8.30;;;11.00;99.90;;;;;;5117451;27;20134;-57
2022/11/07 08:47:38;;;;;;;22.67;8.82;;;11.00;99.90;;;;;;5136346;27;20038;-49
2022/11/07 08:50:04;;;;;;;23.85;8.27;;;11.00;99.90;;;;;;5136770;27;20134;-59
2022/11/07 08:52:30;;;;;;;22.52;9.10;;;11.00;99.90;;;;;;5136725;27;20042;-42
2022/11/07 08:54:55;;;;;;;20.00;7.50;;;11.10;99.90;;;;;;5126663;27;20035;-65
2022/11/07 08:57:21;;;;;;;20.40;8.82;;;11.20;99.90;;;;;;5118696;27;20043;-52
2022/11/07 08:59:47;;;;;;;22.50;8.75;;;11.20;99.90;;;;;;5120162;27;20097;-59
2022/11/07 09:02:12;;;;;;;22.00;8.75;;;11.10;99.90;;;;;;5093037;27;20086;-51
2022/11/07 09:04:38;;;;;;;22.05;8.25;;;11.20;99.90;;;;;;5099185;27;20039;-64
2022/11/07 09:07:04;;;;;;;22.63;8.75;;;11.20;99.90;;;;;;5119855;27;20043;-51
2022/11/07 09:09:29;;;;;;;19.88;8.25;;;11.20;99.90;;;;;;5121685;27;20034;-48
2022/11/07 09:11:55;;;;;;;18.58;7.55;;;11.20;99.90;;;;;;5117083;27;20070;-52
2022/11/07 09:14:21;;;;;;;19.75;8.15;;;11.20;99.90;;;;;;5100212;27;20518;-49
2022/11/07 09:16:46;;;;;;;22.63;8.95;;;11.20;99.90;;;;;;5123782;27;20035;-46
2022/11/07 09:19:12;;;;;;;20.92;8.27;;;11.30;99.90;;;;;;5123259;27;20043;-56
2022/11/07 09:21:38;;;;;;;25.35;10.30;;;11.20;99.90;;;;;;5122283;27;20099;-45
2022/11/07 09:24:04;;;;;;;23.80;8.38;;;11.20;99.90;;;;;;5117856;27;20039;-61
2022/11/07 09:26:30;;;;;;;21.58;8.40;;;11.20;99.90;;;;;;5123464;27;20065;-58
2022/11/07 09:28:56;;;;;;;23.35;8.80;;;11.10;99.90;;;;;;5117794;27;20039;-62
2022/11/07 09:31:22;;;;;;;17.70;8.55;;;11.20;99.90;;;;;;5120975;27;20086;-60
2022/11/07 09:33:47;;;;;;;43.95;24.17;;;11.20;99.90;;;;;;5104336;27;20042;-53
2022/11/07 09:36:13;;;;;;;20.55;8.15;;;11.20;99.90;;;;;;5117872;27;20560;-43
2022/11/07 09:38:39;;;;;;;21.73;8.95;;;11.20;99.90;;;;;;5121426;27;20150;-62
2022/11/07 09:41:23;;;;;;;20.60;10.23;;;11.20;99.90;;;;;;5119771;27;20074;-48
2022/11/07 09:44:27;;;;;;;20.83;9.25;;;11.20;99.90;;;;;;5098165;27;20039;-59
2022/11/07 09:46:53;;;;;;;;;;;11.40;99.90;;;;;;5050452;28;20583;-44
2022/11/07 09:49:23;;;;;;;22.33;8.98;;;11.50;99.90;;;;;;5048745;28;20174;-46
2022/11/07 09:51:55;;;;;;;25.42;12.68;;;11.50;99.90;;;;;;5049645;28;20143;-60
2022/11/07 09:54:26;;;;;;;21.58;8.10;;;11.60;99.90;;;;;;5041104;28;20044;-57
2022/11/07 09:56:54;;;;;;;17.02;7.15;;;11.60;99.90;;;;;;5047306;28;20126;-55
2022/11/07 09:59:23;;;;;;;19.13;7.63;;;11.70;99.90;;;;;;5047732;28;20061;-56
2022/11/07 10:01:49;;;;;;;19.92;8.05;;;11.80;99.90;;;;;;5034203;28;20491;-60
2022/11/07 10:04:18;;;;;;;18.60;8.07;;;11.80;99.90;;;;;;5033629;28;20236;-52
2022/11/07 10:07:07;;;;;;;19.90;7.70;;;11.90;99.90;;;;;;5051035;28;20158;-44
2022/11/07 10:10:12;;;;;;;19.35;7.20;;;12.00;99.90;;;;;;5051384;28;20064;-52
2022/11/07 10:13:02;;;;;;;22.02;7.05;;;12.10;99.90;;;;;;5051465;28;20103;-51
2022/11/07 10:15:46;;;;;;;17.20;6.35;;;12.10;99.90;;;;;;5050892;28;20072;-52
2022/11/07 10:18:36;;;;;;;18.65;7.47;;;12.10;99.90;;;;;;5050541;28;20170;-63
2022/11/07 10:21:19;;;;;;;18.58;6.03;;;12.10;99.90;;;;;;5055393;28;20053;-50
2022/11/07 10:23:54;;;;;;;16.27;5.72;;;12.10;99.90;;;;;;5087895;27;20047;-52
2022/11/07 10:26:23;;;;;;;14.18;5.93;;;12.20;99.90;;;;;;5117602;27;20122;-55
2022/11/07 10:29:16;;;;;;;10.52;5.88;;;12.20;99.90;;;;;;5138138;27;20069;-47
2022/11/07 10:31:55;;;;;;;17.38;5.70;;;12.20;99.90;;;;;;5123489;27;20509;-61
2022/11/07 10:34:33;;;;;;;19.90;5.93;;;12.30;99.90;;;;;;5125935;27;20142;-56
2022/11/07 10:36:58;;;;;;;15.50;5.78;;;12.30;99.90;;;;;;5128084;27;20043;-60
2022/11/07 10:39:24;;;;;;;16.38;6.13;;;12.20;99.90;;;;;;5120923;27;20062;-58
2022/11/07 10:42:18;;;;;;;13.63;5.40;;;12.30;99.90;;;;;;5125495;27;20046;-51
2022/11/07 10:44:44;;;;;;;15.85;6.22;;;12.30;99.90;;;;;;5132962;27;20035;-46
2022/11/07 10:47:15;;;;;;;15.18;5.32;;;12.40;99.90;;;;;;5127862;27;20098;-52
2022/11/07 10:49:55;;;;;;;18.15;7.05;;;12.30;99.90;;;;;;5127288;27;20050;-47
2022/11/07 10:52:21;;;;;;;16.73;7.18;;;12.40;99.90;;;;;;5123525;27;20047;-46
2022/11/07 10:54:47;;;;;;;18.52;6.03;;;12.30;99.90;;;;;;5125828;27;20042;-53
2022/11/07 10:57:19;;;;;;;17.92;6.70;;;12.40;99.90;;;;;;5124598;27;20053;-52
2022/11/07 10:59:51;;;;;;;18.92;7.63;;;12.40;99.90;;;;;;5126803;27;20065;-55
2022/11/07 11:02:29;;;;;;;18.45;8.13;;;12.50;99.90;;;;;;5139047;27;20077;-49
2022/11/07 11:04:57;;;;;;;15.43;6.25;;;12.50;99.90;;;;;;5138062;27;20627;-62
2022/11/07 11:07:34;;;;;;;15.85;6.90;;;12.50;99.90;;;;;;5137827;27;20038;-55
2022/11/07 11:10:00;;;;;;;17.58;7.43;;;12.50;99.90;;;;;;5138547;27;20121;-58
2022/11/07 11:12:31;;;;;;;17.98;6.70;;;12.60;99.90;;;;;;5134152;27;20074;-61
2022/11/07 11:15:11;;;;;;;20.83;9.98;;;12.60;99.90;;;;;;5132582;27;20532;-49
2022/11/07 11:17:36;;;;;;;18.88;6.10;;;12.70;99.90;;;;;;5126243;27;20551;-46
2022/11/07 11:20:04;;;;;;;16.83;6.70;;;12.70;99.90;;;;;;5138601;27;20043;-59
2022/11/07 11:22:30;;;;;;;18.77;6.85;;;12.60;99.90;;;;;;5138827;27;20185;-48
2022/11/07 11:25:17;;;;;;;14.80;6.53;;;12.70;99.90;;;;;;5138497;27;20499;-55
2022/11/07 11:27:47;;;;;;;15.75;6.90;;;12.90;99.90;;;;;;5139110;27;20047;-46
2022/11/07 11:30:17;;;;;;;18.77;7.20;;;13.00;99.90;;;;;;5138270;27;20095;-61
2022/11/07 11:33:10;;;;;;;16.15;6.55;;;13.10;99.90;;;;;;5135917;27;20567;-58
2022/11/07 11:35:45;;;;;;;15.10;5.80;;;13.20;99.90;;;;;;5135824;27;20388;-59
2022/11/07 11:38:20;;;;;;;12.40;5.68;;;13.10;99.90;;;;;;5136657;27;20145;-59
2022/11/07 11:41:12;;;;;;;12.75;6.03;;;13.10;99.90;;;;;;5135072;27;20088;-60
2022/11/07 11:43:45;;;;;;;14.60;6.28;;;13.10;99.90;;;;;;5117284;27;20510;-56
2022/11/07 11:46:24;;;;;;;12.18;7.18;;;13.00;99.90;;;;;;5135339;27;20035;-58
2022/11/07 11:48:56;;;;;;;17.65;6.95;;;13.10;99.90;;;;;;5134152;27;20082;-50
2022/11/07 11:51:35;;;;;;;14.80;6.10;;;13.10;99.90;;;;;;5122768;27;20153;-51
2022/11/07 11:54:01;;;;;;;14.38;5.70;;;13.10;99.90;;;;;;5114594;27;20095;-59
2022/11/07 11:56:54;;;;;;;13.38;6.88;;;13.10;99.90;;;;;;5117462;27;20035;-55
2022/11/07 11:59:50;;;;;;;19.80;7.00;;;13.10;99.90;;;;;;5117215;27;20035;-59
2022/11/07 12:02:28;;;;;;;12.02;5.25;;;13.20;99.90;;;;;;5115955;27;20062;-56
2022/11/07 12:05:22;;;;;;;17.25;8.63;;;13.20;99.90;;;;;;5114919;27;20660;-53
2022/11/07 12:08:32;;;;;;;13.20;5.78;;;13.30;99.90;;;;;;5118411;27;20104;-54
2022/11/07 12:11:10;;;;;;;13.82;5.30;;;13.40;99.90;;;;;;5125087;27;20047;-55
2022/11/07 12:13:47;;;;;;;14.60;5.30;;;13.30;99.90;;;;;;5117462;27;20047;-58
2022/11/07 12:16:16;;;;;;;11.95;5.80;;;13.30;99.90;;;;;;5115977;27;20039;-60
2022/11/07 12:18:50;;;;;;;11.73;4.32;;;13.30;99.90;;;;;;5119223;27;20042;-55
2022/11/07 12:21:31;;;;;;;17.50;5.35;;;13.30;99.90;;;;;;5120858;27;20073;-56
2022/11/07 12:24:01;;;;;;;16.10;5.97;;;13.40;99.90;;;;;;5096789;27;20097;-50
2022/11/07 12:26:43;;;;;;;13.60;5.32;;;13.60;99.90;;;;;;5118672;27;20469;-54
2022/11/07 12:29:21;;;;;;;13.87;4.93;;;13.60;99.90;;;;;;5099177;27;20100;-56
2022/11/07 12:32:17;;;;;;;16.67;5.55;;;13.80;99.90;;;;;;5122579;27;20030;-54
2022/11/07 12:34:56;;;;;;;15.07;5.15;;;13.70;99.90;;;;;;5014062;28;20053;-50
2022/11/07 12:38:16;;;;;;;18.27;6.90;;;13.60;99.90;;;;;;5017603;28;20123;-57
2022/11/07 12:40:50;;;;;;;16.90;5.60;;;13.60;99.90;;;;;;5005400;28;20128;-56
2022/11/07 12:43:43;;;;;;;15.50;5.60;;;13.50;99.90;;;;;;5011014;28;20045;-58
2022/11/07 12:46:15;;;;;;;12.48;5.38;;;13.50;99.90;;;;;;5008145;28;20054;-53
2022/11/07 12:49:18;;;;;;;13.70;5.45;;;13.40;99.90;;;;;;4995887;28;20571;-52
2022/11/07 12:52:15;;;;;;;18.40;6.10;;;13.50;99.90;;;;;;5012476;28;20342;-45
2022/11/07 12:54:52;;;;;;;13.20;5.68;;;13.50;99.90;;;;;;4984302;28;20057;-48
2022/11/07 12:57:27;;;;;;;17.20;5.07;;;13.40;99.90;;;;;;5011316;28;20134;-54
2022/11/07 12:59:58;;;;;;;14.73;5.40;;;13.40;99.90;;;;;;4987820;28;20141;-49
2022/11/07 13:02:45;;;;;;;18.50;5.30;;;13.30;99.90;;;;;;4999779;28;20049;-58